createdAt,value
2023-05-06T00:01:32.124Z,17.50
2023-05-06T00:04:17.984Z,17.50
2023-05-06T00:07:03.063Z,17.50
2023-05-06T00:09:48.681Z,17.50
2023-05-06T00:12:34.156Z,17.50
2023-05-06T00:15:19.438Z,17.50
2023-05-06T00:18:05.111Z,17.50
2023-05-06T00:20:50.598Z,17.40
2023-05-06T00:23:35.701Z,17.40
2023-05-06T00:26:21.105Z,17.50
2023-05-06T00:29:06.367Z,17.50
2023-05-06T00:31:51.797Z,17.50
2023-05-06T00:34:37.224Z,17.50
2023-05-06T00:37:22.611Z,17.40
2023-05-06T00:40:09.026Z,17.40
2023-05-06T00:42:54.289Z,17.30
2023-05-06T00:45:40.238Z,17.30
2023-05-06T00:48:25.674Z,17.20
2023-05-06T00:51:12.384Z,17.30
2023-05-06T00:53:57.776Z,17.30
2023-05-06T00:56:43.188Z,17.30
2023-05-06T00:59:29.112Z,17.30
2023-05-06T01:02:14.435Z,17.30
2023-05-06T01:05:00.802Z,17.20
2023-05-06T01:08:09.768Z,17.20
2023-05-06T01:11:16.526Z,17.10
2023-05-06T01:14:24.290Z,17.20
2023-05-06T01:17:12.230Z,17.10
2023-05-06T01:19:59.711Z,17.00
2023-05-06T01:22:45.215Z,17.10
2023-05-06T01:25:32.194Z,17.10
2023-05-06T01:28:17.290Z,17.10
2023-05-06T01:31:06.605Z,17.00
2023-05-06T01:34:10.953Z,17.00
2023-05-06T01:37:14.279Z,17.10
2023-05-06T01:40:00.832Z,17.00
2023-05-06T01:42:49.427Z,17.00
2023-05-06T01:45:36.345Z,16.90
2023-05-06T01:48:28.024Z,16.90
2023-05-06T01:51:13.380Z,16.90
2023-05-06T01:53:58.669Z,16.80
2023-05-06T01:56:44.184Z,16.80
2023-05-06T01:59:29.718Z,16.80
2023-05-06T02:02:15.629Z,16.80
2023-05-06T02:05:00.868Z,16.80
2023-05-06T02:07:46.267Z,16.80
2023-05-06T02:10:31.686Z,16.80
2023-05-06T02:13:18.614Z,16.70
2023-05-06T02:16:04.222Z,16.80
2023-05-06T02:18:49.471Z,16.90
2023-05-06T02:21:34.831Z,16.90
2023-05-06T02:24:20.412Z,16.90
2023-05-06T02:27:06.312Z,16.80
2023-05-06T02:29:51.906Z,16.80
2023-05-06T02:32:37.451Z,16.80
2023-05-06T02:35:23.024Z,16.90
2023-05-06T02:38:08.123Z,16.80
2023-05-06T02:40:53.353Z,16.80
2023-05-06T02:43:38.648Z,16.80
2023-05-06T02:46:24.120Z,16.80
2023-05-06T02:49:09.467Z,16.80
2023-05-06T02:51:54.978Z,16.80
2023-05-06T02:54:40.417Z,16.80
2023-05-06T02:57:26.337Z,16.80
2023-05-06T03:00:12.834Z,16.80
2023-05-06T03:02:58.043Z,16.80
2023-05-06T03:05:43.375Z,16.80
2023-05-06T03:08:28.830Z,16.80
2023-05-06T03:11:14.247Z,16.80
2023-05-06T03:13:59.554Z,16.80
2023-05-06T03:16:45.025Z,16.90
2023-05-06T03:19:30.178Z,16.80
2023-05-06T03:22:15.693Z,16.80
2023-05-06T03:25:01.329Z,16.80
2023-05-06T03:27:46.467Z,16.90
2023-05-06T03:30:32.188Z,16.90
2023-05-06T03:33:17.525Z,16.90
2023-05-06T03:36:03.067Z,16.90
2023-05-06T03:38:48.444Z,16.90
2023-05-06T03:41:33.826Z,16.90
2023-05-06T03:44:19.199Z,16.90
2023-05-06T03:47:04.588Z,16.90
2023-05-06T03:49:49.968Z,16.90
2023-05-06T03:52:35.539Z,16.80
2023-05-06T03:55:20.934Z,16.80
2023-05-06T03:58:06.447Z,16.80
2023-05-06T04:00:51.781Z,16.80
2023-05-06T04:03:37.373Z,16.90
2023-05-06T04:06:22.663Z,16.80
2023-05-06T04:09:08.042Z,16.90
2023-05-06T04:11:53.411Z,16.90
2023-05-06T04:14:39.790Z,16.90
2023-05-06T04:17:25.066Z,16.90
2023-05-06T04:20:11.364Z,16.90
2023-05-06T04:22:56.778Z,16.90
2023-05-06T04:25:42.705Z,16.80
2023-05-06T04:28:27.997Z,16.80
2023-05-06T04:31:14.572Z,16.80
2023-05-06T04:34:00.034Z,16.80
2023-05-06T04:36:45.232Z,16.80
2023-05-06T04:39:32.039Z,16.80
2023-05-06T04:42:17.426Z,16.80
2023-05-06T04:45:03.506Z,16.90
2023-05-06T04:47:49.006Z,16.90
2023-05-06T04:50:34.321Z,16.90
2023-05-06T04:53:19.782Z,17.00
2023-05-06T04:56:05.348Z,16.90
2023-05-06T04:58:50.421Z,16.90
2023-05-06T05:01:36.116Z,16.90
2023-05-06T05:04:21.380Z,16.90
2023-05-06T05:07:07.455Z,16.90
2023-05-06T05:09:52.749Z,17.00
2023-05-06T05:12:38.087Z,17.00
2023-05-06T05:15:23.580Z,16.80
2023-05-06T05:18:09.107Z,16.80
2023-05-06T05:20:54.573Z,16.80
2023-05-06T05:23:40.060Z,16.90
2023-05-06T05:26:25.491Z,16.90
2023-05-06T05:29:11.199Z,16.80
2023-05-06T05:31:56.506Z,16.80
2023-05-06T05:34:41.906Z,16.90
2023-05-06T05:37:27.182Z,16.90
2023-05-06T05:40:13.007Z,16.90
2023-05-06T05:42:58.045Z,16.70
2023-05-06T05:45:43.368Z,16.80
2023-05-06T05:48:29.079Z,16.80
2023-05-06T05:51:14.228Z,16.90
2023-05-06T05:54:00.014Z,16.90
2023-05-06T05:56:45.141Z,17.00
2023-05-06T05:59:31.556Z,17.00
2023-05-06T06:02:17.287Z,16.90
2023-05-06T06:05:02.578Z,17.00
2023-05-06T06:07:48.167Z,17.00
2023-05-06T06:10:33.674Z,16.90
2023-05-06T06:13:19.153Z,16.90
2023-05-06T06:16:05.240Z,16.90
2023-05-06T06:18:50.467Z,16.90
2023-05-06T06:21:36.174Z,16.80
2023-05-06T06:24:21.564Z,16.80
2023-05-06T06:27:07.073Z,16.90
2023-05-06T06:29:53.283Z,17.00
2023-05-06T06:32:48.387Z,16.80
2023-05-06T06:35:34.741Z,16.80
2023-05-06T06:38:20.154Z,16.80
2023-05-06T06:41:05.918Z,16.80
2023-05-06T06:43:51.290Z,16.90
2023-05-06T06:46:36.839Z,16.80
2023-05-06T06:49:22.016Z,16.90
2023-05-06T06:52:08.548Z,16.90
2023-05-06T06:54:54.128Z,16.90
2023-05-06T06:57:39.900Z,17.00
2023-05-06T07:00:25.532Z,17.00
2023-05-06T07:03:11.188Z,17.10
2023-05-06T07:05:56.736Z,17.20
2023-05-06T07:08:41.908Z,17.20
2023-05-06T07:11:27.181Z,17.30
2023-05-06T07:14:13.888Z,17.40
2023-05-06T07:17:00.781Z,17.30
2023-05-06T07:19:46.415Z,17.20
2023-05-06T07:22:31.834Z,17.30
2023-05-06T07:25:17.229Z,17.40
2023-05-06T07:28:02.634Z,17.50
2023-05-06T07:30:51.252Z,17.50
2023-05-06T07:33:36.603Z,17.50
2023-05-06T07:36:21.946Z,17.70
2023-05-06T07:39:07.676Z,17.70
2023-05-06T07:41:52.871Z,17.70
2023-05-06T07:44:38.630Z,17.70
2023-05-06T07:47:31.570Z,17.70
2023-05-06T07:50:17.265Z,17.70
2023-05-06T07:53:03.863Z,17.70
2023-05-06T07:55:49.373Z,17.70
2023-05-06T07:58:34.860Z,17.60
2023-05-06T08:01:20.347Z,17.80
2023-05-06T08:04:06.220Z,17.80
2023-05-06T08:06:52.112Z,17.80
2023-05-06T08:09:37.835Z,17.70
2023-05-06T08:12:23.034Z,17.90
2023-05-06T08:15:09.246Z,18.10
2023-05-06T08:17:56.012Z,18.10
2023-05-06T08:20:41.826Z,18.20
2023-05-06T08:23:27.347Z,18.40
2023-05-06T08:26:12.926Z,18.40
2023-05-06T08:28:59.446Z,18.50
2023-05-06T08:31:44.649Z,18.70
2023-05-06T08:34:29.870Z,18.70
2023-05-06T08:37:15.368Z,18.70
2023-05-06T08:40:00.800Z,18.70
2023-05-06T08:42:47.855Z,18.50
2023-05-06T08:45:33.524Z,18.40
2023-05-06T08:48:18.735Z,18.50
2023-05-06T08:51:04.683Z,18.50
2023-05-06T08:53:51.550Z,18.60
2023-05-06T08:56:39.661Z,18.70
2023-05-06T08:59:26.739Z,18.90
2023-05-06T09:02:12.609Z,19.30
2023-05-06T09:04:57.766Z,19.50
2023-05-06T09:07:43.220Z,19.20
2023-05-06T09:10:33.066Z,19.30
2023-05-06T09:13:22.241Z,19.60
2023-05-06T09:16:07.645Z,19.80
2023-05-06T09:18:53.055Z,20.10
2023-05-06T09:21:41.014Z,20.30
2023-05-06T09:24:26.361Z,20.20
2023-05-06T09:27:13.254Z,20.30
2023-05-06T09:30:05.772Z,20.50
2023-05-06T09:32:53.109Z,20.80
2023-05-06T09:35:44.253Z,20.80
2023-05-06T09:38:29.303Z,20.70
2023-05-06T09:41:15.256Z,20.70
2023-05-06T09:44:01.060Z,20.50
2023-05-06T09:46:46.501Z,20.50
2023-05-06T09:49:33.222Z,20.60
2023-05-06T09:52:20.676Z,20.40
2023-05-06T09:55:07.322Z,20.60
2023-05-06T09:57:53.328Z,20.50
2023-05-06T10:00:39.244Z,20.70
2023-05-06T10:03:26.297Z,21.10
2023-05-06T10:06:12.287Z,21.40
2023-05-06T10:08:59.596Z,21.40
2023-05-06T10:11:47.101Z,21.70
2023-05-06T10:14:32.422Z,21.90
2023-05-06T10:17:19.268Z,22.20
2023-05-06T10:20:08.000Z,22.50
2023-05-06T10:23:30.852Z,22.70
2023-05-06T10:26:16.831Z,22.90
2023-05-06T10:29:04.637Z,22.40
2023-05-06T10:31:55.051Z,22.80
2023-05-06T10:34:55.068Z,23.00
2023-05-06T10:37:41.321Z,23.40
2023-05-06T10:40:26.836Z,23.60
2023-05-06T10:43:24.265Z,23.80
2023-05-06T10:46:18.778Z,23.80
2023-05-06T10:49:04.940Z,23.80
2023-05-06T10:52:10.818Z,23.90
2023-05-06T10:54:56.187Z,23.70
2023-05-06T10:57:41.577Z,23.70
2023-05-06T11:00:26.982Z,23.50
2023-05-06T11:03:13.819Z,23.40
2023-05-06T11:05:58.938Z,23.30
2023-05-06T11:08:57.142Z,23.60
2023-05-06T11:12:05.439Z,23.80
2023-05-06T11:14:51.182Z,24.30
2023-05-06T11:17:36.556Z,24.50
2023-05-06T11:20:26.661Z,24.60
2023-05-06T11:23:12.473Z,24.70
2023-05-06T11:26:00.582Z,24.50
2023-05-06T11:28:47.783Z,23.90
2023-05-06T11:31:39.261Z,24.20
2023-05-06T11:34:26.095Z,24.80
2023-05-06T11:37:11.201Z,24.80
2023-05-06T11:39:56.623Z,24.80
2023-05-06T11:42:42.016Z,24.50
2023-05-06T11:45:39.422Z,24.70
2023-05-06T11:48:24.802Z,25.00
2023-05-06T11:51:10.084Z,25.10
2023-05-06T11:54:07.069Z,25.30
2023-05-06T11:56:54.156Z,25.70
2023-05-06T11:59:40.545Z,25.90
2023-05-06T12:02:26.082Z,26.10
2023-05-06T12:05:12.214Z,26.40
2023-05-06T12:07:57.520Z,26.40
2023-05-06T12:10:43.026Z,26.10
2023-05-06T12:13:29.307Z,25.90
2023-05-06T12:16:15.800Z,25.90
2023-05-06T12:19:01.864Z,25.90
2023-05-06T12:21:47.936Z,25.70
2023-05-06T12:24:33.377Z,26.00
2023-05-06T12:27:30.424Z,26.30
2023-05-06T12:30:15.772Z,26.50
2023-05-06T12:33:02.181Z,26.60
2023-05-06T12:35:47.747Z,26.40
2023-05-06T12:38:33.425Z,26.70
2023-05-06T12:41:20.112Z,26.90
2023-05-06T12:44:36.220Z,27.20
2023-05-06T12:47:25.654Z,27.60
2023-05-06T12:50:11.612Z,27.70
2023-05-06T12:52:57.383Z,27.60
2023-05-06T12:55:42.841Z,27.00
2023-05-06T12:58:28.235Z,26.80
2023-05-06T13:01:13.658Z,26.30
2023-05-06T13:03:59.109Z,26.50
2023-05-06T13:06:44.568Z,26.90
2023-05-06T13:09:30.324Z,26.90
2023-05-06T13:12:15.653Z,26.70
2023-05-06T13:15:01.091Z,26.60
2023-05-06T13:17:46.613Z,26.70
2023-05-06T13:20:32.399Z,26.90
2023-05-06T13:23:19.669Z,27.20
2023-05-06T13:26:06.202Z,26.70
2023-05-06T13:28:51.994Z,26.70
2023-05-06T13:31:37.469Z,26.60
2023-05-06T13:34:22.841Z,26.50
2023-05-06T13:37:08.218Z,26.40
2023-05-06T13:39:53.778Z,26.30
2023-05-06T13:42:39.255Z,26.10
2023-05-06T13:45:24.770Z,25.90
2023-05-06T13:48:10.358Z,25.60
2023-05-06T13:50:55.492Z,25.50
2023-05-06T13:53:41.265Z,25.50
2023-05-06T13:56:26.905Z,25.20
2023-05-06T13:59:13.906Z,25.00
2023-05-06T14:01:59.468Z,25.00
2023-05-06T14:04:45.230Z,25.00
2023-05-06T14:07:30.300Z,25.50
2023-05-06T14:10:15.980Z,25.70
2023-05-06T14:13:01.115Z,26.00
2023-05-06T14:15:46.369Z,25.80
2023-05-06T14:18:33.387Z,25.40
2023-05-06T14:21:18.737Z,25.40
2023-05-06T14:24:06.128Z,25.30
2023-05-06T14:26:52.877Z,24.90
2023-05-06T14:29:38.003Z,24.40
2023-05-06T14:32:23.367Z,24.30
2023-05-06T14:35:09.645Z,24.30
2023-05-06T14:37:55.555Z,24.20
2023-05-06T14:40:40.813Z,24.40
2023-05-06T14:43:26.302Z,24.70
2023-05-06T14:46:11.873Z,24.60
2023-05-06T14:48:57.438Z,25.00
2023-05-06T14:51:43.439Z,25.10
2023-05-06T14:54:29.322Z,25.20
2023-05-06T14:57:14.641Z,25.70
2023-05-06T15:00:00.274Z,25.60
2023-05-06T15:02:46.201Z,25.40
2023-05-06T15:05:31.679Z,25.20
2023-05-06T15:08:16.988Z,24.80
2023-05-06T15:11:04.310Z,24.50
2023-05-06T15:13:49.852Z,24.20
2023-05-06T15:16:35.100Z,24.30
2023-05-06T15:19:20.438Z,24.30
2023-05-06T15:22:05.776Z,24.20
2023-05-06T15:24:51.175Z,23.90
2023-05-06T15:27:37.353Z,23.50
2023-05-06T15:30:22.897Z,23.50
2023-05-06T15:33:09.000Z,23.40
2023-05-06T15:35:54.212Z,23.40
2023-05-06T15:38:51.874Z,23.40
2023-05-06T15:41:38.008Z,23.40
2023-05-06T15:44:23.201Z,23.20
2023-05-06T15:47:08.606Z,23.30
2023-05-06T15:49:54.994Z,23.30
2023-05-06T15:52:44.956Z,23.30
2023-05-06T15:55:35.085Z,23.40
2023-05-06T15:58:26.559Z,23.30
2023-05-06T16:01:12.459Z,23.30
2023-05-06T16:03:57.983Z,23.20
2023-05-06T16:06:43.396Z,23.20
2023-05-06T16:09:28.801Z,23.20
2023-05-06T16:12:14.744Z,23.10
2023-05-06T16:15:00.448Z,23.20
2023-05-06T16:17:45.859Z,23.30
2023-05-06T16:20:32.552Z,23.30
2023-05-06T16:23:19.226Z,23.30
2023-05-06T16:26:04.284Z,23.10
2023-05-06T16:28:49.682Z,23.10
2023-05-06T16:31:35.300Z,22.90
2023-05-06T16:34:20.464Z,22.90
2023-05-06T16:37:07.488Z,22.80
2023-05-06T16:39:52.439Z,22.70
2023-05-06T16:42:38.084Z,22.70
2023-05-06T16:45:23.553Z,22.70
2023-05-06T16:48:09.150Z,22.70
2023-05-06T16:50:54.331Z,22.60
2023-05-06T16:53:39.669Z,22.70
2023-05-06T16:56:28.207Z,22.70
2023-05-06T16:59:20.890Z,22.80
2023-05-06T17:02:07.500Z,22.60
2023-05-06T17:04:52.672Z,22.70
2023-05-06T17:07:38.389Z,22.70
2023-05-06T17:10:29.051Z,22.70
2023-05-06T17:13:14.285Z,22.50
2023-05-06T17:15:59.819Z,22.40
2023-05-06T17:18:45.107Z,22.40
2023-05-06T17:21:31.803Z,22.40
2023-05-06T17:24:16.937Z,22.40
2023-05-06T17:27:02.778Z,22.30
2023-05-06T17:29:48.053Z,22.30
2023-05-06T17:32:33.588Z,22.20
2023-05-06T17:35:20.195Z,22.20
2023-05-06T17:38:05.399Z,22.20
2023-05-06T17:40:50.758Z,22.30
2023-05-06T17:43:36.296Z,22.20
2023-05-06T17:46:21.709Z,22.20
2023-05-06T17:49:07.002Z,22.20
2023-05-06T17:51:52.725Z,22.10
2023-05-06T17:54:38.408Z,22.10
2023-05-06T17:57:23.868Z,21.90
2023-05-06T18:00:09.808Z,21.90
2023-05-06T18:02:55.606Z,21.80
2023-05-06T18:05:41.262Z,21.80
2023-05-06T18:08:26.650Z,21.60
2023-05-06T18:11:12.339Z,21.60
2023-05-06T18:13:57.493Z,21.50
2023-05-06T18:16:42.929Z,21.40
2023-05-06T18:19:28.520Z,21.30
2023-05-06T18:22:13.876Z,21.30
2023-05-06T18:24:59.397Z,21.30
2023-05-06T18:27:44.738Z,21.20
2023-05-06T18:30:29.997Z,21.10
2023-05-06T18:33:15.494Z,21.00
2023-05-06T18:36:00.881Z,20.90
2023-05-06T18:38:46.483Z,20.90
2023-05-06T18:41:31.726Z,20.80
2023-05-06T18:44:17.298Z,20.70
2023-05-06T18:47:02.695Z,20.60
2023-05-06T18:49:48.967Z,20.40
2023-05-06T18:52:35.999Z,20.40
2023-05-06T18:55:21.476Z,20.30
2023-05-06T18:58:06.983Z,20.20
2023-05-06T19:00:54.015Z,20.20
2023-05-06T19:03:39.353Z,20.20
2023-05-06T19:06:24.913Z,20.10
2023-05-06T19:09:11.262Z,20.00
2023-05-06T19:11:56.325Z,19.90
2023-05-06T19:14:41.969Z,19.90
2023-05-06T19:17:27.826Z,19.80
2023-05-06T19:20:14.371Z,19.80
2023-05-06T19:23:01.087Z,19.80
2023-05-06T19:25:46.400Z,19.80
2023-05-06T19:28:32.070Z,19.60
2023-05-06T19:31:17.660Z,19.60
2023-05-06T19:34:03.087Z,19.50
2023-05-06T19:36:48.482Z,19.50
2023-05-06T19:39:33.980Z,19.20
2023-05-06T19:42:19.652Z,19.20
2023-05-06T19:45:09.410Z,19.10
2023-05-06T19:47:55.084Z,19.10
2023-05-06T19:50:41.361Z,19.10
2023-05-06T19:53:27.399Z,19.00
2023-05-06T19:56:14.089Z,18.70
2023-05-06T19:58:59.501Z,18.50
2023-05-06T20:01:44.777Z,18.40
2023-05-06T20:04:30.979Z,18.20
2023-05-06T20:07:17.266Z,18.10
2023-05-06T20:10:02.698Z,18.00
2023-05-06T20:12:48.282Z,18.00
2023-05-06T20:15:35.284Z,18.00
2023-05-06T20:18:20.904Z,18.00
2023-05-06T20:21:06.527Z,17.90
2023-05-06T20:23:52.090Z,17.80
2023-05-06T20:26:37.294Z,17.70
2023-05-06T20:29:22.638Z,17.60
2023-05-06T20:32:08.280Z,17.40
2023-05-06T20:34:53.422Z,17.30
2023-05-06T20:37:39.151Z,17.50
2023-05-06T20:40:24.385Z,17.40
2023-05-06T20:43:09.594Z,17.30
2023-05-06T20:45:55.099Z,17.30
2023-05-06T20:48:40.916Z,17.50
2023-05-06T20:51:27.759Z,17.70
2023-05-06T20:54:13.351Z,17.90
2023-05-06T20:56:58.628Z,17.90
2023-05-06T20:59:44.326Z,18.10
2023-05-06T21:02:31.479Z,18.10
2023-05-06T21:05:17.258Z,18.20
2023-05-06T21:08:02.812Z,18.20
2023-05-06T21:10:47.905Z,18.20
2023-05-06T21:13:33.348Z,18.10
2023-05-06T21:16:18.799Z,18.10
2023-05-06T21:19:04.014Z,18.10
2023-05-06T21:21:49.405Z,18.20
2023-05-06T21:24:34.767Z,18.10
2023-05-06T21:27:20.079Z,18.00
2023-05-06T21:30:06.853Z,18.10
2023-05-06T21:32:51.848Z,18.00
2023-05-06T21:35:37.656Z,18.10
2023-05-06T21:38:23.080Z,18.10
2023-05-06T21:41:08.821Z,18.00
2023-05-06T21:43:54.146Z,17.90
2023-05-06T21:46:39.656Z,17.90
2023-05-06T21:49:24.878Z,17.90
2023-05-06T21:52:10.266Z,17.90
2023-05-06T21:54:56.367Z,17.60
2023-05-06T21:57:41.414Z,17.40
2023-05-06T22:00:28.094Z,17.50
2023-05-06T22:03:13.302Z,17.50
2023-05-06T22:05:58.502Z,17.40
2023-05-06T22:08:43.793Z,17.40
2023-05-06T22:11:29.318Z,17.50
2023-05-06T22:14:15.107Z,17.40
2023-05-06T22:17:01.666Z,17.50
2023-05-06T22:19:46.843Z,17.50
2023-05-06T22:22:33.803Z,17.50
2023-05-06T22:25:19.638Z,17.50
2023-05-06T22:28:05.266Z,17.60
2023-05-06T22:30:50.568Z,17.50
2023-05-06T22:33:35.882Z,17.40
2023-05-06T22:36:21.622Z,17.30
2023-05-06T22:39:06.775Z,17.20
2023-05-06T22:41:52.305Z,17.10
2023-05-06T22:44:37.533Z,17.20
2023-05-06T22:47:22.846Z,17.20
2023-05-06T22:50:08.920Z,17.10
2023-05-06T22:52:54.284Z,17.10
2023-05-06T22:55:40.876Z,17.00
2023-05-06T22:58:26.005Z,17.10
2023-05-06T23:01:11.922Z,17.00
2023-05-06T23:03:58.251Z,16.80
2023-05-06T23:06:44.451Z,16.90
2023-05-06T23:09:29.764Z,16.90
2023-05-06T23:12:15.747Z,16.80
2023-05-06T23:15:01.957Z,16.90
2023-05-06T23:17:47.137Z,16.80
2023-05-06T23:20:32.524Z,16.70
2023-05-06T23:23:17.821Z,16.80
2023-05-06T23:26:03.400Z,16.80
2023-05-06T23:28:48.706Z,16.80
2023-05-06T23:31:34.232Z,16.80
2023-05-06T23:34:19.471Z,16.70
2023-05-06T23:37:04.766Z,16.70
2023-05-06T23:39:50.779Z,16.60
2023-05-06T23:42:36.068Z,16.70
2023-05-06T23:45:21.461Z,16.60
2023-05-06T23:48:07.585Z,16.50
2023-05-06T23:50:54.390Z,16.40
2023-05-06T23:53:40.200Z,16.40
2023-05-06T23:56:25.706Z,16.30
2023-05-06T23:59:11.420Z,16.30
